sensor_id;sensor_type;location;lat;lon;timestamp;P1;durP1;ratioP1;P2;durP2;ratioP2
5303;SDS011;2674;49.722;10.892;2022-09-09T00:01:06;2.10;;;1.90;;
5303;SDS011;2674;49.722;10.892;2022-09-09T00:03:53;5.20;;;1.93;;
5303;SDS011;2674;49.722;10.892;2022-09-09T00:06:26;4.30;;;2.00;;
5303;SDS011;2674;49.722;10.892;2022-09-09T00:14:26;2.80;;;2.13;;
5303;SDS011;2674;49.722;10.892;2022-09-09T00:17:21;4.17;;;1.90;;
5303;SDS011;2674;49.722;10.892;2022-09-09T00:20:39;3.60;;;2.27;;
5303;SDS011;2674;49.722;10.892;2022-09-09T00:23:00;4.83;;;2.10;;
5303;SDS011;2674;49.722;10.892;2022-09-09T00:25:37;4.97;;;2.47;;
5303;SDS011;2674;49.722;10.892;2022-09-09T00:28:18;6.27;;;2.50;;
5303;SDS011;2674;49.722;10.892;2022-09-09T00:30:46;3.83;;;2.47;;
5303;SDS011;2674;49.722;10.892;2022-09-09T00:33:16;4.97;;;2.47;;
5303;SDS011;2674;49.722;10.892;2022-09-09T00:35:50;1.73;;;1.63;;
5303;SDS011;2674;49.722;10.892;2022-09-09T00:41:05;9.57;;;2.50;;
5303;SDS011;2674;49.722;10.892;2022-09-09T00:44:00;2.87;;;2.23;;
5303;SDS011;2674;49.722;10.892;2022-09-09T00:46:40;3.00;;;2.70;;
5303;SDS011;2674;49.722;10.892;2022-09-09T00:57:44;7.13;;;2.73;;
5303;SDS011;2674;49.722;10.892;2022-09-09T01:08:01;4.77;;;2.27;;
5303;SDS011;2674;49.722;10.892;2022-09-09T01:10:50;5.30;;;2.53;;
5303;SDS011;2674;49.722;10.892;2022-09-09T01:13:29;3.57;;;2.10;;
5303;SDS011;2674;49.722;10.892;2022-09-09T01:16:00;6.00;;;2.77;;
5303;SDS011;2674;49.722;10.892;2022-09-09T01:18:28;10.23;;;2.57;;
5303;SDS011;2674;49.722;10.892;2022-09-09T01:26:34;4.10;;;2.80;;
5303;SDS011;2674;49.722;10.892;2022-09-09T01:29:04;2.30;;;2.07;;
5303;SDS011;2674;49.722;10.892;2022-09-09T01:31:38;3.23;;;2.60;;
5303;SDS011;2674;49.722;10.892;2022-09-09T01:34:13;3.90;;;2.17;;
5303;SDS011;2674;49.722;10.892;2022-09-09T01:36:49;2.80;;;2.43;;
5303;SDS011;2674;49.722;10.892;2022-09-09T01:39:16;4.27;;;2.80;;
5303;SDS011;2674;49.722;10.892;2022-09-09T01:41:42;6.40;;;2.67;;
5303;SDS011;2674;49.722;10.892;2022-09-09T01:44:08;4.33;;;2.60;;
5303;SDS011;2674;49.722;10.892;2022-09-09T01:46:36;2.40;;;2.20;;
5303;SDS011;2674;49.722;10.892;2022-09-09T01:49:02;3.00;;;2.80;;
5303;SDS011;2674;49.722;10.892;2022-09-09T01:51:30;3.40;;;2.10;;
5303;SDS011;2674;49.722;10.892;2022-09-09T01:53:56;3.10;;;2.40;;
5303;SDS011;2674;49.722;10.892;2022-09-09T01:56:58;2.57;;;2.27;;
5303;SDS011;2674;49.722;10.892;2022-09-09T01:59:43;3.80;;;2.37;;
5303;SDS011;2674;49.722;10.892;2022-09-09T02:02:33;3.83;;;2.27;;
5303;SDS011;2674;49.722;10.892;2022-09-09T02:08:33;5.13;;;2.23;;
5303;SDS011;2674;49.722;10.892;2022-09-09T02:11:01;4.47;;;2.77;;
5303;SDS011;2674;49.722;10.892;2022-09-09T02:13:43;4.83;;;2.57;;
5303;SDS011;2674;49.722;10.892;2022-09-09T02:16:17;3.83;;;2.50;;
5303;SDS011;2674;49.722;10.892;2022-09-09T02:21:16;2.73;;;2.37;;
5303;SDS011;2674;49.722;10.892;2022-09-09T02:23:43;2.63;;;2.20;;
5303;SDS011;2674;49.722;10.892;2022-09-09T02:26:12;5.73;;;2.60;;
5303;SDS011;2674;49.722;10.892;2022-09-09T02:28:45;7.23;;;2.53;;
5303;SDS011;2674;49.722;10.892;2022-09-09T02:31:14;2.37;;;2.17;;
5303;SDS011;2674;49.722;10.892;2022-09-09T02:33:44;2.80;;;2.23;;
5303;SDS011;2674;49.722;10.892;2022-09-09T02:36:13;4.33;;;2.53;;
5303;SDS011;2674;49.722;10.892;2022-09-09T02:38:42;1.97;;;1.87;;
5303;SDS011;2674;49.722;10.892;2022-09-09T02:41:23;4.40;;;2.10;;
5303;SDS011;2674;49.722;10.892;2022-09-09T02:43:53;2.00;;;1.90;;
5303;SDS011;2674;49.722;10.892;2022-09-09T02:46:36;2.37;;;2.03;;
5303;SDS011;2674;49.722;10.892;2022-09-09T02:58:19;5.70;;;3.20;;
5303;SDS011;2674;49.722;10.892;2022-09-09T03:00:46;3.90;;;2.30;;
5303;SDS011;2674;49.722;10.892;2022-09-09T03:03:13;3.90;;;2.70;;
5303;SDS011;2674;49.722;10.892;2022-09-09T03:05:41;2.70;;;2.43;;
5303;SDS011;2674;49.722;10.892;2022-09-09T03:08:08;2.40;;;2.20;;
5303;SDS011;2674;49.722;10.892;2022-09-09T03:10:34;3.30;;;2.13;;
5303;SDS011;2674;49.722;10.892;2022-09-09T03:13:00;3.13;;;2.80;;
5303;SDS011;2674;49.722;10.892;2022-09-09T03:15:26;7.63;;;2.07;;
5303;SDS011;2674;49.722;10.892;2022-09-09T03:17:55;4.10;;;2.10;;
5303;SDS011;2674;49.722;10.892;2022-09-09T03:20:22;2.43;;;1.93;;
5303;SDS011;2674;49.722;10.892;2022-09-09T03:22:51;7.30;;;2.47;;
5303;SDS011;2674;49.722;10.892;2022-09-09T03:25:17;5.00;;;2.90;;
5303;SDS011;2674;49.722;10.892;2022-09-09T03:27:43;4.23;;;2.60;;
5303;SDS011;2674;49.722;10.892;2022-09-09T03:30:09;3.00;;;2.07;;
5303;SDS011;2674;49.722;10.892;2022-09-09T03:32:35;3.27;;;2.43;;
5303;SDS011;2674;49.722;10.892;2022-09-09T03:35:02;4.00;;;2.57;;
5303;SDS011;2674;49.722;10.892;2022-09-09T03:37:28;1.77;;;1.63;;
5303;SDS011;2674;49.722;10.892;2022-09-09T03:39:54;2.27;;;2.07;;
5303;SDS011;2674;49.722;10.892;2022-09-09T03:42:20;2.03;;;1.83;;
5303;SDS011;2674;49.722;10.892;2022-09-09T03:44:47;2.53;;;2.33;;
5303;SDS011;2674;49.722;10.892;2022-09-09T03:47:19;4.33;;;2.17;;
5303;SDS011;2674;49.722;10.892;2022-09-09T03:49:47;1.90;;;1.80;;
5303;SDS011;2674;49.722;10.892;2022-09-09T03:52:13;2.07;;;1.93;;
5303;SDS011;2674;49.722;10.892;2022-09-09T03:54:40;5.27;;;2.33;;
5303;SDS011;2674;49.722;10.892;2022-09-09T03:57:07;6.30;;;2.40;;
5303;SDS011;2674;49.722;10.892;2022-09-09T03:59:37;2.83;;;2.10;;
5303;SDS011;2674;49.722;10.892;2022-09-09T04:02:03;2.07;;;1.83;;
5303;SDS011;2674;49.722;10.892;2022-09-09T04:04:29;3.17;;;2.87;;
5303;SDS011;2674;49.722;10.892;2022-09-09T04:06:55;2.10;;;1.97;;
5303;SDS011;2674;49.722;10.892;2022-09-09T04:09:21;2.30;;;1.80;;
5303;SDS011;2674;49.722;10.892;2022-09-09T04:11:47;2.33;;;2.23;;
5303;SDS011;2674;49.722;10.892;2022-09-09T04:14:14;7.93;;;2.37;;
5303;SDS011;2674;49.722;10.892;2022-09-09T04:16:40;2.83;;;2.07;;
5303;SDS011;2674;49.722;10.892;2022-09-09T04:19:09;2.07;;;1.97;;
5303;SDS011;2674;49.722;10.892;2022-09-09T04:21:42;4.00;;;1.70;;
5303;SDS011;2674;49.722;10.892;2022-09-09T04:24:08;3.70;;;2.30;;
5303;SDS011;2674;49.722;10.892;2022-09-09T04:26:34;2.77;;;2.00;;
5303;SDS011;2674;49.722;10.892;2022-09-09T04:29:02;3.73;;;2.33;;
5303;SDS011;2674;49.722;10.892;2022-09-09T04:31:28;3.93;;;2.07;;
5303;SDS011;2674;49.722;10.892;2022-09-09T04:33:55;5.93;;;2.57;;
5303;SDS011;2674;49.722;10.892;2022-09-09T04:36:21;2.07;;;1.90;;
5303;SDS011;2674;49.722;10.892;2022-09-09T04:38:47;2.50;;;2.30;;
5303;SDS011;2674;49.722;10.892;2022-09-09T04:41:16;1.87;;;1.77;;
5303;SDS011;2674;49.722;10.892;2022-09-09T04:43:42;4.73;;;2.23;;
5303;SDS011;2674;49.722;10.892;2022-09-09T04:46:08;3.80;;;2.20;;
5303;SDS011;2674;49.722;10.892;2022-09-09T04:48:34;3.17;;;1.80;;
5303;SDS011;2674;49.722;10.892;2022-09-09T04:51:08;6.00;;;1.70;;
5303;SDS011;2674;49.722;10.892;2022-09-09T04:53:36;4.53;;;2.20;;
5303;SDS011;2674;49.722;10.892;2022-09-09T04:58:39;2.47;;;2.27;;
5303;SDS011;2674;49.722;10.892;2022-09-09T05:01:13;3.33;;;2.00;;
5303;SDS011;2674;49.722;10.892;2022-09-09T05:03:39;3.40;;;1.83;;
5303;SDS011;2674;49.722;10.892;2022-09-09T05:06:09;1.97;;;1.87;;
5303;SDS011;2674;49.722;10.892;2022-09-09T05:08:36;3.30;;;1.87;;
5303;SDS011;2674;49.722;10.892;2022-09-09T05:11:04;5.80;;;2.57;;
5303;SDS011;2674;49.722;10.892;2022-09-09T05:13:44;4.37;;;1.90;;
5303;SDS011;2674;49.722;10.892;2022-09-09T05:16:10;5.03;;;2.17;;
5303;SDS011;2674;49.722;10.892;2022-09-09T05:18:38;2.23;;;2.07;;
5303;SDS011;2674;49.722;10.892;2022-09-09T05:21:04;2.60;;;2.13;;
5303;SDS011;2674;49.722;10.892;2022-09-09T05:23:31;2.03;;;1.90;;
5303;SDS011;2674;49.722;10.892;2022-09-09T05:26:02;3.10;;;2.40;;
5303;SDS011;2674;49.722;10.892;2022-09-09T05:28:29;12.30;;;2.30;;
5303;SDS011;2674;49.722;10.892;2022-09-09T05:30:56;2.77;;;2.33;;
5303;SDS011;2674;49.722;10.892;2022-09-09T05:33:23;2.50;;;2.30;;
5303;SDS011;2674;49.722;10.892;2022-09-09T05:35:57;5.90;;;1.70;;
5303;SDS011;2674;49.722;10.892;2022-09-09T05:38:24;5.43;;;2.17;;
5303;SDS011;2674;49.722;10.892;2022-09-09T05:40:50;3.80;;;2.10;;
5303;SDS011;2674;49.722;10.892;2022-09-09T05:43:17;2.30;;;2.20;;
5303;SDS011;2674;49.722;10.892;2022-09-09T05:45:45;7.80;;;2.30;;
5303;SDS011;2674;49.722;10.892;2022-09-09T05:48:13;3.30;;;2.43;;
5303;SDS011;2674;49.722;10.892;2022-09-09T05:50:42;4.73;;;1.90;;
5303;SDS011;2674;49.722;10.892;2022-09-09T05:53:09;3.40;;;2.10;;
5303;SDS011;2674;49.722;10.892;2022-09-09T05:55:35;6.80;;;2.27;;
5303;SDS011;2674;49.722;10.892;2022-09-09T05:58:01;2.53;;;2.20;;
5303;SDS011;2674;49.722;10.892;2022-09-09T06:00:27;8.40;;;2.30;;
5303;SDS011;2674;49.722;10.892;2022-09-09T06:02:56;2.30;;;2.10;;
5303;SDS011;2674;49.722;10.892;2022-09-09T06:05:22;6.30;;;2.83;;
5303;SDS011;2674;49.722;10.892;2022-09-09T06:07:51;2.03;;;1.93;;
5303;SDS011;2674;49.722;10.892;2022-09-09T06:10:18;4.10;;;2.13;;
5303;SDS011;2674;49.722;10.892;2022-09-09T06:12:44;2.30;;;2.17;;
5303;SDS011;2674;49.722;10.892;2022-09-09T06:15:10;6.17;;;2.00;;
5303;SDS011;2674;49.722;10.892;2022-09-09T06:17:35;4.47;;;2.20;;
5303;SDS011;2674;49.722;10.892;2022-09-09T06:20:02;3.10;;;2.17;;
5303;SDS011;2674;49.722;10.892;2022-09-09T06:22:29;11.33;;;2.60;;
5303;SDS011;2674;49.722;10.892;2022-09-09T06:24:55;1.67;;;1.57;;
5303;SDS011;2674;49.722;10.892;2022-09-09T06:27:20;2.23;;;2.03;;
5303;SDS011;2674;49.722;10.892;2022-09-09T06:29:46;4.93;;;2.40;;
5303;SDS011;2674;49.722;10.892;2022-09-09T06:32:13;6.73;;;2.30;;
5303;SDS011;2674;49.722;10.892;2022-09-09T06:34:39;3.17;;;2.00;;
5303;SDS011;2674;49.722;10.892;2022-09-09T06:37:05;5.37;;;3.20;;
5303;SDS011;2674;49.722;10.892;2022-09-09T06:39:31;3.70;;;1.80;;
5303;SDS011;2674;49.722;10.892;2022-09-09T06:41:57;4.83;;;2.00;;
5303;SDS011;2674;49.722;10.892;2022-09-09T06:44:23;3.70;;;1.83;;
5303;SDS011;2674;49.722;10.892;2022-09-09T06:46:52;2.97;;;2.00;;
5303;SDS011;2674;49.722;10.892;2022-09-09T06:49:17;2.23;;;2.03;;
5303;SDS011;2674;49.722;10.892;2022-09-09T06:51:43;4.80;;;2.00;;
5303;SDS011;2674;49.722;10.892;2022-09-09T06:54:10;4.50;;;1.77;;
5303;SDS011;2674;49.722;10.892;2022-09-09T06:56:40;7.00;;;2.60;;
5303;SDS011;2674;49.722;10.892;2022-09-09T06:59:08;4.37;;;1.57;;
5303;SDS011;2674;49.722;10.892;2022-09-09T07:01:35;3.37;;;1.40;;
5303;SDS011;2674;49.722;10.892;2022-09-09T07:04:03;3.43;;;1.90;;
5303;SDS011;2674;49.722;10.892;2022-09-09T07:06:33;1.30;;;1.20;;
5303;SDS011;2674;49.722;10.892;2022-09-09T07:09:02;3.00;;;1.50;;
5303;SDS011;2674;49.722;10.892;2022-09-09T07:11:30;5.10;;;2.20;;
5303;SDS011;2674;49.722;10.892;2022-09-09T07:14:02;3.30;;;1.60;;
5303;SDS011;2674;49.722;10.892;2022-09-09T07:16:28;4.43;;;3.20;;
5303;SDS011;2674;49.722;10.892;2022-09-09T07:18:56;3.90;;;1.77;;
5303;SDS011;2674;49.722;10.892;2022-09-09T07:21:26;1.83;;;1.73;;
5303;SDS011;2674;49.722;10.892;2022-09-09T07:23:53;8.13;;;1.83;;
5303;SDS011;2674;49.722;10.892;2022-09-09T07:26:20;15.20;;;2.77;;
5303;SDS011;2674;49.722;10.892;2022-09-09T07:28:48;3.07;;;1.67;;
5303;SDS011;2674;49.722;10.892;2022-09-09T07:31:18;5.13;;;3.00;;
5303;SDS011;2674;49.722;10.892;2022-09-09T07:33:46;4.47;;;1.93;;
5303;SDS011;2674;49.722;10.892;2022-09-09T07:38:50;2.53;;;1.40;;
5303;SDS011;2674;49.722;10.892;2022-09-09T07:41:25;6.03;;;1.53;;
5303;SDS011;2674;49.722;10.892;2022-09-09T07:43:57;4.97;;;1.90;;
5303;SDS011;2674;49.722;10.892;2022-09-09T07:46:24;9.93;;;2.13;;
5303;SDS011;2674;49.722;10.892;2022-09-09T07:48:52;6.53;;;1.77;;
5303;SDS011;2674;49.722;10.892;2022-09-09T07:51:21;5.77;;;1.80;;
5303;SDS011;2674;49.722;10.892;2022-09-09T07:53:53;5.13;;;1.60;;
5303;SDS011;2674;49.722;10.892;2022-09-09T07:56:25;2.53;;;1.60;;
5303;SDS011;2674;49.722;10.892;2022-09-09T07:58:52;4.13;;;1.80;;
5303;SDS011;2674;49.722;10.892;2022-09-09T08:01:27;4.17;;;1.70;;
5303;SDS011;2674;49.722;10.892;2022-09-09T08:03:56;10.87;;;2.67;;
5303;SDS011;2674;49.722;10.892;2022-09-09T08:06:50;1.30;;;1.20;;
5303;SDS011;2674;49.722;10.892;2022-09-09T08:09:15;1.63;;;1.20;;
5303;SDS011;2674;49.722;10.892;2022-09-09T08:11:41;1.30;;;1.20;;
5303;SDS011;2674;49.722;10.892;2022-09-09T08:14:08;2.53;;;1.33;;
5303;SDS011;2674;49.722;10.892;2022-09-09T08:16:37;4.13;;;1.30;;
5303;SDS011;2674;49.722;10.892;2022-09-09T08:19:05;1.13;;;1.00;;
5303;SDS011;2674;49.722;10.892;2022-09-09T08:21:32;2.23;;;1.10;;
5303;SDS011;2674;49.722;10.892;2022-09-09T08:24:02;2.60;;;1.30;;
5303;SDS011;2674;49.722;10.892;2022-09-09T08:26:29;3.73;;;1.30;;
5303;SDS011;2674;49.722;10.892;2022-09-09T08:28:57;1.90;;;1.20;;
5303;SDS011;2674;49.722;10.892;2022-09-09T08:31:28;3.80;;;0.90;;
5303;SDS011;2674;49.722;10.892;2022-09-09T08:34:02;4.00;;;1.10;;
5303;SDS011;2674;49.722;10.892;2022-09-09T08:36:30;4.27;;;0.90;;
5303;SDS011;2674;49.722;10.892;2022-09-09T08:39:02;2.87;;;1.00;;
5303;SDS011;2674;49.722;10.892;2022-09-09T08:47:07;1.10;;;1.00;;
5303;SDS011;2674;49.722;10.892;2022-09-09T08:50:16;4.23;;;1.40;;
5303;SDS011;2674;49.722;10.892;2022-09-09T09:03:28;2.83;;;1.03;;
5303;SDS011;2674;49.722;10.892;2022-09-09T09:09:33;4.60;;;1.20;;
5303;SDS011;2674;49.722;10.892;2022-09-09T09:12:20;5.67;;;0.93;;
5303;SDS011;2674;49.722;10.892;2022-09-09T09:14:49;3.37;;;1.10;;
5303;SDS011;2674;49.722;10.892;2022-09-09T09:17:18;1.53;;;0.83;;
5303;SDS011;2674;49.722;10.892;2022-09-09T09:19:47;2.77;;;0.90;;
5303;SDS011;2674;49.722;10.892;2022-09-09T09:27:42;1.70;;;1.07;;
5303;SDS011;2674;49.722;10.892;2022-09-09T09:30:26;1.17;;;0.80;;
5303;SDS011;2674;49.722;10.892;2022-09-09T09:36:02;2.50;;;1.13;;
5303;SDS011;2674;49.722;10.892;2022-09-09T09:38:33;2.57;;;0.80;;
5303;SDS011;2674;49.722;10.892;2022-09-09T09:40:59;2.67;;;0.87;;
5303;SDS011;2674;49.722;10.892;2022-09-09T09:43:33;3.20;;;1.17;;
5303;SDS011;2674;49.722;10.892;2022-09-09T09:46:00;2.60;;;0.70;;
5303;SDS011;2674;49.722;10.892;2022-09-09T09:48:29;4.37;;;1.20;;
5303;SDS011;2674;49.722;10.892;2022-09-09T09:51:08;3.33;;;1.20;;
5303;SDS011;2674;49.722;10.892;2022-09-09T09:53:38;2.93;;;0.90;;
5303;SDS011;2674;49.722;10.892;2022-09-09T09:56:05;3.27;;;0.87;;
5303;SDS011;2674;49.722;10.892;2022-09-09T10:01:22;7.33;;;0.83;;
5303;SDS011;2674;49.722;10.892;2022-09-09T10:04:00;2.67;;;0.93;;
5303;SDS011;2674;49.722;10.892;2022-09-09T10:08:58;3.20;;;1.10;;
5303;SDS011;2674;49.722;10.892;2022-09-09T10:16:51;3.40;;;1.07;;
5303;SDS011;2674;49.722;10.892;2022-09-09T10:22:18;2.27;;;1.10;;
5303;SDS011;2674;49.722;10.892;2022-09-09T10:30:28;3.30;;;0.77;;
5303;SDS011;2674;49.722;10.892;2022-09-09T10:33:03;2.20;;;0.80;;
5303;SDS011;2674;49.722;10.892;2022-09-09T10:36:00;1.60;;;1.23;;
5303;SDS011;2674;49.722;10.892;2022-09-09T10:38:40;2.33;;;0.90;;
5303;SDS011;2674;49.722;10.892;2022-09-09T10:41:37;3.43;;;0.77;;
5303;SDS011;2674;49.722;10.892;2022-09-09T10:55:51;3.57;;;0.70;;
5303;SDS011;2674;49.722;10.892;2022-09-09T11:01:27;5.77;;;1.00;;
5303;SDS011;2674;49.722;10.892;2022-09-09T11:04:31;3.27;;;0.90;;
5303;SDS011;2674;49.722;10.892;2022-09-09T11:07:02;2.20;;;0.80;;
5303;SDS011;2674;49.722;10.892;2022-09-09T11:09:36;2.77;;;1.00;;
5303;SDS011;2674;49.722;10.892;2022-09-09T11:12:06;18.90;;;1.80;;
5303;SDS011;2674;49.722;10.892;2022-09-09T11:17:42;3.90;;;1.30;;
5303;SDS011;2674;49.722;10.892;2022-09-09T11:20:14;2.30;;;0.90;;
5303;SDS011;2674;49.722;10.892;2022-09-09T11:25:48;4.00;;;1.27;;
5303;SDS011;2674;49.722;10.892;2022-09-09T11:44:51;5.47;;;1.17;;
5303;SDS011;2674;49.722;10.892;2022-09-09T11:47:24;4.63;;;1.20;;
5303;SDS011;2674;49.722;10.892;2022-09-09T11:50:06;2.10;;;0.80;;
5303;SDS011;2674;49.722;10.892;2022-09-09T11:53:03;7.77;;;1.00;;
5303;SDS011;2674;49.722;10.892;2022-09-09T11:55:39;3.43;;;0.90;;
5303;SDS011;2674;49.722;10.892;2022-09-09T11:58:06;6.53;;;1.50;;
5303;SDS011;2674;49.722;10.892;2022-09-09T12:00:45;1.57;;;1.07;;
5303;SDS011;2674;49.722;10.892;2022-09-09T12:09:04;1.47;;;0.70;;
5303;SDS011;2674;49.722;10.892;2022-09-09T12:11:46;4.83;;;0.90;;
5303;SDS011;2674;49.722;10.892;2022-09-09T12:14:55;2.90;;;1.20;;
5303;SDS011;2674;49.722;10.892;2022-09-09T12:19:41;2.50;;;1.00;;
5303;SDS011;2674;49.722;10.892;2022-09-09T12:22:32;3.13;;;0.80;;
5303;SDS011;2674;49.722;10.892;2022-09-09T12:33:23;2.83;;;1.13;;
5303;SDS011;2674;49.722;10.892;2022-09-09T12:35:54;1.87;;;0.90;;
5303;SDS011;2674;49.722;10.892;2022-09-09T12:38:35;3.80;;;1.00;;
5303;SDS011;2674;49.722;10.892;2022-09-09T12:41:03;0.77;;;0.73;;
5303;SDS011;2674;49.722;10.892;2022-09-09T12:43:30;3.73;;;1.23;;
5303;SDS011;2674;49.722;10.892;2022-09-09T12:46:00;1.80;;;0.93;;
5303;SDS011;2674;49.722;10.892;2022-09-09T12:48:38;1.07;;;0.70;;
5303;SDS011;2674;49.722;10.892;2022-09-09T12:51:15;1.47;;;0.90;;
5303;SDS011;2674;49.722;10.892;2022-09-09T12:53:44;2.10;;;0.70;;
5303;SDS011;2674;49.722;10.892;2022-09-09T12:56:18;1.20;;;1.03;;
5303;SDS011;2674;49.722;10.892;2022-09-09T12:58:46;0.90;;;0.70;;
5303;SDS011;2674;49.722;10.892;2022-09-09T13:01:32;2.20;;;0.87;;
5303;SDS011;2674;49.722;10.892;2022-09-09T13:03:58;2.10;;;0.80;;
5303;SDS011;2674;49.722;10.892;2022-09-09T13:06:26;5.20;;;1.30;;
5303;SDS011;2674;49.722;10.892;2022-09-09T13:08:57;2.07;;;1.27;;
5303;SDS011;2674;49.722;10.892;2022-09-09T13:11:26;3.10;;;1.50;;
5303;SDS011;2674;49.722;10.892;2022-09-09T13:14:00;2.17;;;1.40;;
5303;SDS011;2674;49.722;10.892;2022-09-09T13:16:27;11.57;;;2.57;;
5303;SDS011;2674;49.722;10.892;2022-09-09T13:19:01;1.57;;;0.80;;
5303;SDS011;2674;49.722;10.892;2022-09-09T13:21:35;2.13;;;0.83;;
5303;SDS011;2674;49.722;10.892;2022-09-09T13:24:04;2.83;;;0.80;;
5303;SDS011;2674;49.722;10.892;2022-09-09T13:26:32;2.50;;;1.03;;
5303;SDS011;2674;49.722;10.892;2022-09-09T13:29:18;1.70;;;0.70;;
5303;SDS011;2674;49.722;10.892;2022-09-09T13:31:44;3.47;;;0.90;;
5303;SDS011;2674;49.722;10.892;2022-09-09T13:34:33;0.80;;;0.60;;
5303;SDS011;2674;49.722;10.892;2022-09-09T13:36:59;5.13;;;0.80;;
5303;SDS011;2674;49.722;10.892;2022-09-09T13:39:27;1.87;;;0.87;;
5303;SDS011;2674;49.722;10.892;2022-09-09T13:41:54;4.53;;;1.13;;
5303;SDS011;2674;49.722;10.892;2022-09-09T13:44:30;2.83;;;0.83;;
5303;SDS011;2674;49.722;10.892;2022-09-09T13:47:02;4.30;;;0.90;;
5303;SDS011;2674;49.722;10.892;2022-09-09T13:49:30;2.30;;;0.80;;
5303;SDS011;2674;49.722;10.892;2022-09-09T13:52:11;4.20;;;0.90;;
5303;SDS011;2674;49.722;10.892;2022-09-09T13:54:42;3.83;;;0.90;;
5303;SDS011;2674;49.722;10.892;2022-09-09T13:57:14;2.30;;;0.80;;
5303;SDS011;2674;49.722;10.892;2022-09-09T13:59:45;3.70;;;0.80;;
5303;SDS011;2674;49.722;10.892;2022-09-09T14:02:12;2.73;;;0.73;;
5303;SDS011;2674;49.722;10.892;2022-09-09T14:04:38;2.53;;;1.00;;
5303;SDS011;2674;49.722;10.892;2022-09-09T14:07:08;2.40;;;0.90;;
5303;SDS011;2674;49.722;10.892;2022-09-09T14:09:39;1.20;;;0.70;;
5303;SDS011;2674;49.722;10.892;2022-09-09T14:12:05;1.13;;;0.70;;
5303;SDS011;2674;49.722;10.892;2022-09-09T14:14:39;2.37;;;1.10;;
5303;SDS011;2674;49.722;10.892;2022-09-09T14:17:04;5.13;;;1.20;;
5303;SDS011;2674;49.722;10.892;2022-09-09T14:19:31;3.20;;;0.80;;
5303;SDS011;2674;49.722;10.892;2022-09-09T14:21:57;0.80;;;0.50;;
5303;SDS011;2674;49.722;10.892;2022-09-09T14:24:23;1.03;;;0.90;;
5303;SDS011;2674;49.722;10.892;2022-09-09T14:26:50;2.20;;;0.57;;
5303;SDS011;2674;49.722;10.892;2022-09-09T14:29:16;3.43;;;1.23;;
5303;SDS011;2674;49.722;10.892;2022-09-09T14:31:42;0.70;;;0.60;;
5303;SDS011;2674;49.722;10.892;2022-09-09T14:34:08;2.90;;;1.33;;
5303;SDS011;2674;49.722;10.892;2022-09-09T14:36:36;1.07;;;0.70;;
5303;SDS011;2674;49.722;10.892;2022-09-09T14:39:02;1.53;;;0.80;;
5303;SDS011;2674;49.722;10.892;2022-09-09T14:41:29;1.40;;;0.57;;
5303;SDS011;2674;49.722;10.892;2022-09-09T14:43:55;2.37;;;0.80;;
5303;SDS011;2674;49.722;10.892;2022-09-09T14:46:22;1.90;;;0.87;;
5303;SDS011;2674;49.722;10.892;2022-09-09T14:48:48;3.93;;;1.03;;
5303;SDS011;2674;49.722;10.892;2022-09-09T14:51:18;1.50;;;0.60;;
5303;SDS011;2674;49.722;10.892;2022-09-09T14:53:53;2.20;;;0.70;;
5303;SDS011;2674;49.722;10.892;2022-09-09T14:56:22;3.80;;;0.97;;
5303;SDS011;2674;49.722;10.892;2022-09-09T14:58:50;2.93;;;1.30;;
5303;SDS011;2674;49.722;10.892;2022-09-09T15:01:18;2.73;;;1.07;;
5303;SDS011;2674;49.722;10.892;2022-09-09T15:03:49;1.63;;;0.73;;
5303;SDS011;2674;49.722;10.892;2022-09-09T15:06:19;2.10;;;0.90;;
5303;SDS011;2674;49.722;10.892;2022-09-09T15:08:46;3.33;;;0.70;;
5303;SDS011;2674;49.722;10.892;2022-09-09T15:11:15;2.83;;;0.70;;
5303;SDS011;2674;49.722;10.892;2022-09-09T15:13:42;1.17;;;0.80;;
5303;SDS011;2674;49.722;10.892;2022-09-09T15:16:09;1.40;;;1.00;;
5303;SDS011;2674;49.722;10.892;2022-09-09T15:18:40;13.67;;;1.47;;
5303;SDS011;2674;49.722;10.892;2022-09-09T15:21:13;1.73;;;0.73;;
5303;SDS011;2674;49.722;10.892;2022-09-09T15:23:41;3.63;;;0.90;;
5303;SDS011;2674;49.722;10.892;2022-09-09T15:26:08;3.27;;;1.07;;
5303;SDS011;2674;49.722;10.892;2022-09-09T15:28:36;3.63;;;0.83;;
5303;SDS011;2674;49.722;10.892;2022-09-09T15:31:10;1.00;;;0.90;;
5303;SDS011;2674;49.722;10.892;2022-09-09T15:33:39;2.23;;;0.80;;
5303;SDS011;2674;49.722;10.892;2022-09-09T15:36:39;3.07;;;1.07;;
5303;SDS011;2674;49.722;10.892;2022-09-09T15:39:00;5.10;;;1.63;;
5303;SDS011;2674;49.722;10.892;2022-09-09T15:41:27;1.60;;;1.10;;
5303;SDS011;2674;49.722;10.892;2022-09-09T15:43:54;3.10;;;0.83;;
5303;SDS011;2674;49.722;10.892;2022-09-09T15:46:30;3.03;;;1.00;;
5303;SDS011;2674;49.722;10.892;2022-09-09T15:49:04;3.03;;;0.80;;
5303;SDS011;2674;49.722;10.892;2022-09-09T15:51:30;1.20;;;0.90;;
5303;SDS011;2674;49.722;10.892;2022-09-09T15:53:57;3.87;;;1.10;;
5303;SDS011;2674;49.722;10.892;2022-09-09T15:56:25;2.30;;;1.00;;
5303;SDS011;2674;49.722;10.892;2022-09-09T15:58:52;3.73;;;1.37;;
5303;SDS011;2674;49.722;10.892;2022-09-09T16:01:20;0.80;;;0.80;;
5303;SDS011;2674;49.722;10.892;2022-09-09T16:03:46;1.53;;;0.83;;
5303;SDS011;2674;49.722;10.892;2022-09-09T16:06:16;1.80;;;1.03;;
5303;SDS011;2674;49.722;10.892;2022-09-09T16:08:43;5.90;;;1.10;;
5303;SDS011;2674;49.722;10.892;2022-09-09T16:11:12;1.63;;;0.80;;
5303;SDS011;2674;49.722;10.892;2022-09-09T16:13:49;4.43;;;0.77;;
5303;SDS011;2674;49.722;10.892;2022-09-09T16:16:18;5.60;;;1.07;;
5303;SDS011;2674;49.722;10.892;2022-09-09T16:18:48;4.40;;;1.27;;
5303;SDS011;2674;49.722;10.892;2022-09-09T16:21:21;3.50;;;1.30;;
5303;SDS011;2674;49.722;10.892;2022-09-09T16:23:49;2.57;;;0.67;;
5303;SDS011;2674;49.722;10.892;2022-09-09T16:26:17;1.73;;;1.00;;
5303;SDS011;2674;49.722;10.892;2022-09-09T16:28:43;3.63;;;0.83;;
5303;SDS011;2674;49.722;10.892;2022-09-09T16:31:12;0.90;;;0.50;;
5303;SDS011;2674;49.722;10.892;2022-09-09T16:33:41;1.03;;;0.70;;
5303;SDS011;2674;49.722;10.892;2022-09-09T16:36:08;1.03;;;0.70;;
5303;SDS011;2674;49.722;10.892;2022-09-09T16:38:35;1.33;;;0.73;;
5303;SDS011;2674;49.722;10.892;2022-09-09T16:41:02;1.60;;;0.90;;
5303;SDS011;2674;49.722;10.892;2022-09-09T16:43:33;0.63;;;0.63;;
5303;SDS011;2674;49.722;10.892;2022-09-09T16:46:01;1.63;;;0.90;;
5303;SDS011;2674;49.722;10.892;2022-09-09T16:48:31;2.10;;;0.80;;
5303;SDS011;2674;49.722;10.892;2022-09-09T16:51:05;1.23;;;0.70;;
5303;SDS011;2674;49.722;10.892;2022-09-09T16:53:33;3.07;;;0.67;;
5303;SDS011;2674;49.722;10.892;2022-09-09T16:56:06;1.50;;;0.80;;
5303;SDS011;2674;49.722;10.892;2022-09-09T16:58:32;2.30;;;0.80;;
5303;SDS011;2674;49.722;10.892;2022-09-09T17:00:59;3.10;;;0.87;;
5303;SDS011;2674;49.722;10.892;2022-09-09T17:03:26;12.30;;;0.80;;
5303;SDS011;2674;49.722;10.892;2022-09-09T17:05:53;1.07;;;0.73;;
5303;SDS011;2674;49.722;10.892;2022-09-09T17:08:18;2.53;;;0.70;;
5303;SDS011;2674;49.722;10.892;2022-09-09T17:10:44;1.60;;;0.87;;
5303;SDS011;2674;49.722;10.892;2022-09-09T17:13:10;1.10;;;1.00;;
5303;SDS011;2674;49.722;10.892;2022-09-09T17:15:41;4.73;;;0.70;;
5303;SDS011;2674;49.722;10.892;2022-09-09T17:18:08;0.90;;;0.90;;
5303;SDS011;2674;49.722;10.892;2022-09-09T17:20:39;0.80;;;0.60;;
5303;SDS011;2674;49.722;10.892;2022-09-09T17:23:06;0.63;;;0.63;;
5303;SDS011;2674;49.722;10.892;2022-09-09T17:25:33;2.03;;;0.70;;
5303;SDS011;2674;49.722;10.892;2022-09-09T17:27:59;2.03;;;0.83;;
5303;SDS011;2674;49.722;10.892;2022-09-09T17:30:28;3.03;;;0.67;;
5303;SDS011;2674;49.722;10.892;2022-09-09T17:32:55;1.57;;;0.70;;
5303;SDS011;2674;49.722;10.892;2022-09-09T17:35:21;0.80;;;0.60;;
5303;SDS011;2674;49.722;10.892;2022-09-09T17:37:46;1.33;;;1.03;;
5303;SDS011;2674;49.722;10.892;2022-09-09T17:40:13;0.60;;;0.60;;
5303;SDS011;2674;49.722;10.892;2022-09-09T17:42:38;1.13;;;0.97;;
5303;SDS011;2674;49.722;10.892;2022-09-09T17:45:05;1.70;;;1.03;;
5303;SDS011;2674;49.722;10.892;2022-09-09T17:47:32;0.70;;;0.57;;
5303;SDS011;2674;49.722;10.892;2022-09-09T17:49:57;0.70;;;0.70;;
5303;SDS011;2674;49.722;10.892;2022-09-09T17:52:23;3.07;;;0.70;;